Insignia — WDI9968 — position and weather

sailwx.info

Track history (hours):
 
Tides and Currents Weather Stations Pressure Air Temp Water Temp Dewpoint Dewpoint Depression Visibility Wind Speed Wind Dir Waves Ship Positions

Insignia

Owner: Hamilton, Robin, Fort Lauderdale, FL. More information available from US FCC via Universal Licensing System and Coast Guard Vessel Documentation Center.

Last reported at 2018-Feb-21 19:00 UTC. Time now 2018-Feb-21 19:23 UTC.
Position N 26°05' W 080°11'.

Length 34 m; draft 2.4 m.

Type: Pleasure craft. MMSI: 367753960.

Date/timePositionNaut miles runAvg speedWind from/ knotsBaromVisibWave heightAir tempDewpointWater temp
2018-Feb-21 19:00N 26°05' W 080°11'0 0.0
2018-Feb-21 18:30N 26°05' W 080°11'0 0.0
2018-Feb-21 18:00N 26°05' W 080°11'0 0.0
2018-Feb-21 17:30N 26°05' W 080°11'0 0.0
2018-Feb-21 17:00N 26°05' W 080°11'0 0.0
2018-Feb-21 16:30N 26°05' W 080°11'0 0.0
2018-Feb-21 16:00N 26°05' W 080°11'0 0.0
2018-Feb-21 15:30N 26°05' W 080°11'0 0.0
2018-Feb-21 15:00N 26°05' W 080°11'0 0.0
2018-Feb-21 14:30N 26°05' W 080°11'0 0.0
2018-Feb-21 14:00N 26°05' W 080°11'0 0.0
2018-Feb-21 13:30N 26°05' W 080°11'0 0.0
2018-Feb-21 13:00N 26°05' W 080°11'0 0.0
2018-Feb-21 12:30N 26°05' W 080°11'0 0.0
2018-Feb-21 12:00N 26°05' W 080°11'0 0.0
2018-Feb-21 11:30N 26°05' W 080°11'0 0.0
2018-Feb-21 11:00N 26°05' W 080°11'0 0.0
2018-Feb-21 10:30N 26°05' W 080°11'0 0.0
2018-Feb-21 10:00N 26°05' W 080°11'0 0.0
2018-Feb-21 09:30N 26°05' W 080°11'0 0.0
2018-Feb-21 09:00N 26°05' W 080°11'0 0.0
2018-Feb-21 08:30N 26°05' W 080°11'0 0.0
2018-Feb-21 08:00N 26°05' W 080°11'0 0.0
2018-Feb-21 07:30N 26°05' W 080°11'0 0.0
2018-Feb-21 07:00N 26°05' W 080°11'0 0.0
2018-Feb-21 06:30N 26°05' W 080°11'0 0.0
2018-Feb-21 06:00N 26°05' W 080°11'0 0.0
2018-Feb-21 05:30N 26°05' W 080°11'0 0.0
2018-Feb-21 05:00N 26°05' W 080°11'0 0.0
2018-Feb-21 04:30N 26°05' W 080°11'0 0.0
2018-Feb-21 04:00N 26°05' W 080°11'0 0.0
2018-Feb-21 03:30N 26°05' W 080°11'0 0.0
2018-Feb-21 03:00N 26°05' W 080°11'0 0.0
2018-Feb-21 02:30N 26°05' W 080°11'0 0.0
2018-Feb-21 02:00N 26°05' W 080°11'0 0.0
2018-Feb-21 01:30N 26°05' W 080°11'0 0.0
2018-Feb-21 01:00N 26°05' W 080°11'0 0.0
2018-Feb-21 00:30N 26°05' W 080°11'0 0.0
2018-Feb-21 00:00N 26°05' W 080°11'0 0.0
2018-Feb-20 23:30N 26°05' W 080°11'0 0.0
2018-Feb-20 23:00N 26°05' W 080°11'0 0.0
2018-Feb-20 22:30N 26°05' W 080°11'0 0.0
2018-Feb-20 22:00N 26°05' W 080°11'0 0.0
2018-Feb-20 21:30N 26°05' W 080°11'0 0.0
2018-Feb-20 21:00N 26°05' W 080°11'1 2.1
2018-Feb-20 20:30N 26°06' W 080°10'2 3.1
2018-Feb-20 19:59N 26°07' W 080°09'2 3.2
2018-Feb-20 19:29N 26°07' W 080°07'2 5.2
2018-Feb-20 19:00N 26°04' W 080°07'3 6.0
2018-Feb-20 18:30N 26°01' W 080°07'3 5.3
2018-Feb-20 18:00N 25°58' W 080°07'3 5.5
2018-Feb-20 17:30N 25°56' W 080°08'2 4.4
2018-Feb-20 17:00N 25°54' W 080°08'2 4.8
2018-Feb-20 16:30N 25°51' W 080°09'2 3.0
2018-Feb-20 16:00N 25°50' W 080°07'0 0.3
2018-Feb-20 15:30N 25°50' W 080°07'1 1.1
2018-Feb-20 14:59N 25°50' W 080°07'0 0.0
2018-Feb-20 14:29N 25°50' W 080°07'0 0.0
2018-Feb-20 13:59N 25°50' W 080°07'0 0.0
2018-Feb-20 13:29N 25°50' W 080°07'0 0.0
2018-Feb-20 12:59N 25°50' W 080°07'0 0.0
2018-Feb-20 12:28N 25°50' W 080°07'0 0.0
2018-Feb-20 11:58N 25°50' W 080°07'0 0.0
2018-Feb-20 11:28N 25°50' W 080°07'0 0.0
2018-Feb-20 10:58N 25°50' W 080°07'0 0.0
2018-Feb-20 10:28N 25°50' W 080°07'0 0.0
2018-Feb-20 09:58N 25°50' W 080°07'0 0.0
2018-Feb-20 09:25N 25°50' W 080°07'0 0.0
2018-Feb-20 08:58N 25°50' W 080°07'0 0.0
2018-Feb-20 08:25N 25°50' W 080°07'0 0.0
2018-Feb-20 07:55N 25°50' W 080°07'0 0.0
2018-Feb-20 07:28N 25°50' W 080°07'0 0.0
2018-Feb-20 06:58N 25°50' W 080°07'0 0.0
2018-Feb-20 06:28N 25°50' W 080°07'0 0.0
2018-Feb-20 05:55N 25°50' W 080°07'0 0.0
2018-Feb-20 05:25N 25°50' W 080°07'0 0.0
2018-Feb-20 04:58N 25°50' W 080°07'0 0.0
2018-Feb-20 04:25N 25°50' W 080°07'0 0.0
2018-Feb-20 03:55N 25°50' W 080°07'0 0.0
2018-Feb-20 03:28N 25°50' W 080°07'0 0.0
2018-Feb-20 02:58N 25°50' W 080°07'0 0.0
2018-Feb-20 02:28N 25°50' W 080°07'0 0.0
2018-Feb-20 01:58N 25°50' W 080°07'0 0.0
2018-Feb-20 01:28N 25°50' W 080°07'0 0.0
2018-Feb-20 00:58N 25°50' W 080°07'0 0.0
2018-Feb-20 00:28N 25°50' W 080°07'0 0.0
2018-Feb-19 23:58N 25°50' W 080°07'0 0.0
2018-Feb-19 23:28N 25°50' W 080°07'0 0.0
2018-Feb-19 22:58N 25°50' W 080°07'0 0.0
2018-Feb-19 22:28N 25°50' W 080°07'0 0.0
2018-Feb-19 21:58N 25°50' W 080°07'0 0.0
2018-Feb-19 21:31N 25°50' W 080°07'0 0.0
2018-Feb-19 21:01N 25°50' W 080°07'0 0.0
2018-Feb-19 20:30N 25°50' W 080°07'0 0.0
2018-Feb-19 19:58N 25°50' W 080°07'0 0.0
2018-Feb-19 19:31N 25°50' W 080°07'0 0.0
2018-Feb-19 19:01N 25°50' W 080°07'0 0.0
2018-Feb-19 18:28N 25°50' W 080°07'0 0.0
2018-Feb-19 17:55N 25°50' W 080°07'0 0.0
2018-Feb-19 17:25N 25°50' W 080°07'0 0.0
2018-Feb-19 16:52N 25°50' W 080°07'0 0.0
2018-Feb-19 16:27N 25°50' W 080°07'0 0.0
2018-Feb-19 16:01N 25°50' W 080°07'0 0.0
2018-Feb-19 15:30N 25°50' W 080°07'0 0.0
2018-Feb-19 15:01N 25°50' W 080°07'0 0.0
2018-Feb-19 14:25N 25°50' W 080°07'0 0.0
2018-Feb-19 13:57N 25°50' W 080°07'0 0.0
2018-Feb-19 13:28N 25°50' W 080°07'0 0.0
2018-Feb-19 13:00N 25°50' W 080°07'0 0.0
2018-Feb-19 12:31N 25°50' W 080°07'0 0.0
2018-Feb-19 11:58N 25°50' W 080°07'0 0.0
2018-Feb-19 11:30N 25°50' W 080°07'0 0.0
2018-Feb-19 10:55N 25°50' W 080°07'0 0.0
2018-Feb-19 10:27N 25°50' W 080°07'0 0.0
2018-Feb-19 10:00N 25°50' W 080°07'0 0.0
2018-Feb-19 09:28N 25°50' W 080°07'0 0.0
2018-Feb-19 09:01N 25°50' W 080°07'0 0.0
2018-Feb-19 08:27N 25°50' W 080°07'0 0.0
2018-Feb-19 08:01N 25°50' W 080°07'0 0.0
2018-Feb-19 07:30N 25°50' W 080°07'0 0.0
2018-Feb-19 07:00N 25°50' W 080°07'0 0.0
2018-Feb-19 06:31N 25°50' W 080°07'0 0.0
2018-Feb-19 06:00N 25°50' W 080°07'0 0.0
2018-Feb-19 05:30N 25°50' W 080°07'0 0.0
2018-Feb-19 05:00N 25°50' W 080°07'0 0.0
2018-Feb-19 04:30N 25°50' W 080°07'0 0.0
2018-Feb-19 04:00N 25°50' W 080°07'0 0.0
2018-Feb-19 03:30N 25°50' W 080°07'0 0.0
2018-Feb-19 03:00N 25°50' W 080°07'0 0.0
2018-Feb-19 02:30N 25°50' W 080°07'0 0.0
2018-Feb-19 02:00N 25°50' W 080°07'0 0.0
2018-Feb-19 01:30N 25°50' W 080°07'0 0.0
2018-Feb-19 01:00N 25°50' W 080°07'0 0.0
2018-Feb-19 00:30N 25°50' W 080°07'0 0.0
2018-Feb-19 00:00N 25°50' W 080°07'0 0.0
2018-Feb-18 23:31N 25°50' W 080°07'0 0.0
2018-Feb-18 23:01N 25°50' W 080°07'0 0.0
2018-Feb-18 22:25N 25°50' W 080°07'0 0.0
2018-Feb-18 22:00N 25°50' W 080°07'0 0.0
2018-Feb-18 21:30N 25°50' W 080°07'0 0.0
2018-Feb-18 20:54N 25°50' W 080°07'0 0.0
2018-Feb-18 20:27N 25°50' W 080°07'0 0.0
2018-Feb-18 19:57N 25°50' W 080°07'0 0.0
2018-Feb-18 19:30N 25°50' W 080°07'0 0.0
2018-Feb-18 19:01N 25°50' W 080°07'0 0.0
2018-Feb-18 18:30N 25°50' W 080°07'0 0.0
2018-Feb-18 17:57N 25°50' W 080°07'0 0.0
2018-Feb-18 17:30N 25°50' W 080°07'0 0.0
2018-Feb-18 17:00N 25°50' W 080°07'0 0.0
2018-Feb-18 16:30N 25°50' W 080°07'0 0.0
2018-Feb-18 16:00N 25°50' W 080°07'0 0.0
2018-Feb-18 15:30N 25°50' W 080°07'0 0.0
2018-Feb-18 15:00N 25°50' W 080°07'0 0.0
2018-Feb-18 14:30N 25°50' W 080°07'0 0.0
2018-Feb-18 14:00N 25°50' W 080°07'0 0.0
2018-Feb-18 13:30N 25°50' W 080°07'0 0.0
2018-Feb-18 13:00N 25°50' W 080°07'0 0.0
2018-Feb-18 12:30N 25°50' W 080°07'0 0.0
2018-Feb-18 11:57N 25°50' W 080°07'0 0.0
2018-Feb-18 11:27N 25°50' W 080°07'0 0.0
2018-Feb-18 11:00N 25°50' W 080°07'0 0.0
2018-Feb-18 10:30N 25°50' W 080°07'0 0.0
2018-Feb-18 09:51N 25°50' W 080°07'0 0.0
2018-Feb-18 09:30N 25°50' W 080°07'0 0.0
2018-Feb-18 09:00N 25°50' W 080°07'0 0.0
2018-Feb-18 08:30N 25°50' W 080°07'0 0.0
2018-Feb-18 08:00N 25°50' W 080°07'0 0.0
2018-Feb-18 07:30N 25°50' W 080°07'0 0.0
2018-Feb-18 07:00N 25°50' W 080°07'0 0.0
2018-Feb-18 06:27N 25°50' W 080°07'0 0.0
2018-Feb-18 06:00N 25°50' W 080°07'0 0.0
2018-Feb-18 05:30N 25°50' W 080°07'0 0.0
2018-Feb-18 05:00N 25°50' W 080°07'0 0.0
2018-Feb-18 04:27N 25°50' W 080°07'0 0.0
2018-Feb-18 04:00N 25°50' W 080°07'0 0.0
2018-Feb-18 03:30N 25°50' W 080°07'0 0.0
2018-Feb-18 03:00N 25°50' W 080°07'0 0.0
2018-Feb-18 02:30N 25°50' W 080°07'0 0.0
2018-Feb-18 02:00N 25°50' W 080°07'0 0.0
2018-Feb-18 01:30N 25°50' W 080°07'0 0.0
2018-Feb-18 01:00N 25°50' W 080°07'0 0.0
2018-Feb-18 00:30N 25°50' W 080°07'0 0.0
2018-Feb-18 00:00N 25°50' W 080°07'0 0.0
2018-Feb-17 23:27N 25°50' W 080°07'0 0.0
2018-Feb-17 23:00N 25°50' W 080°07'0 0.0
2018-Feb-17 22:30N 25°50' W 080°07'0 0.0
2018-Feb-17 22:00N 25°50' W 080°07'0 0.0
2018-Feb-17 21:30N 25°50' W 080°07'0 0.0
2018-Feb-17 21:00N 25°50' W 080°07'0 0.0
2018-Feb-17 20:30N 25°50' W 080°07'0 0.0
2018-Feb-17 19:57N 25°50' W 080°07'0 0.0
2018-Feb-17 19:27N 25°50' W 080°07'0 0.0
2018-Feb-17 19:00N 25°50' W 080°07'0 0.0
2018-Feb-17 18:24N 25°50' W 080°07'0 0.0
2018-Feb-17 18:00N 25°50' W 080°07'0 0.0
2018-Feb-17 17:27N 25°50' W 080°07'0 0.0
2018-Feb-17 17:00N 25°50' W 080°07'0 0.0
2018-Feb-17 16:30N 25°50' W 080°07'0 0.0
2018-Feb-17 16:00N 25°50' W 080°07'0 0.0
2018-Feb-17 15:21N 25°50' W 080°07'0 0.0
2018-Feb-17 15:00N 25°50' W 080°07'0 0.0
2018-Feb-17 14:30N 25°50' W 080°07'0 0.0
2018-Feb-17 13:57N 25°50' W 080°07'0 0.0
2018-Feb-17 13:30N 25°50' W 080°07'0 0.0
2018-Feb-17 13:00N 25°50' W 080°07'0 0.0
2018-Feb-17 12:30N 25°50' W 080°07'0 0.0
2018-Feb-17 12:00N 25°50' W 080°07'0 0.0
2018-Feb-17 11:30N 25°50' W 080°07'0 0.0
2018-Feb-17 11:00N 25°50' W 080°07'0 0.0
2018-Feb-17 10:27N 25°50' W 080°07'0 0.0
2018-Feb-17 10:00N 25°50' W 080°07'0 0.0
2018-Feb-17 09:30N 25°50' W 080°07'0 0.0
2018-Feb-17 09:00N 25°50' W 080°07'0 0.0
2018-Feb-17 08:30N 25°50' W 080°07'0 0.0
2018-Feb-17 08:00N 25°50' W 080°07'0 0.0
2018-Feb-17 07:30N 25°50' W 080°07'0 0.0
2018-Feb-17 07:00N 25°50' W 080°07'0 0.0
2018-Feb-17 06:30N 25°50' W 080°07'0 0.0
2018-Feb-17 06:00N 25°50' W 080°07'0 0.0
2018-Feb-17 05:30N 25°50' W 080°07'0 0.0
2018-Feb-17 04:57N 25°50' W 080°07'0 0.0
2018-Feb-17 04:30N 25°50' W 080°07'0 0.0
2018-Feb-17 04:00N 25°50' W 080°07'0 0.0
2018-Feb-17 03:30N 25°50' W 080°07'0 0.0
2018-Feb-17 03:00N 25°50' W 080°07'0 0.0
2018-Feb-17 02:30N 25°50' W 080°07'0 0.0
2018-Feb-17 02:00N 25°50' W 080°07'0 0.0
2018-Feb-17 01:30N 25°50' W 080°07'0 0.0
2018-Feb-17 01:00N 25°50' W 080°07'0 0.0
2018-Feb-17 00:27N 25°50' W 080°07'0 0.0
2018-Feb-17 00:00N 25°50' W 080°07'0 0.0
2018-Feb-16 23:30N 25°50' W 080°07'0 0.0
2018-Feb-16 23:00N 25°50' W 080°07'0 0.0
2018-Feb-16 22:27N 25°50' W 080°07'0 0.0
2018-Feb-16 22:00N 25°50' W 080°07'0 0.0
2018-Feb-16 21:30N 25°50' W 080°07'0 0.0
2018-Feb-16 21:00N 25°50' W 080°07'0 0.0
2018-Feb-16 20:30N 25°50' W 080°07'0 0.0
2018-Feb-16 20:00N 25°50' W 080°07'0 0.0
2018-Feb-16 19:30N 25°50' W 080°07'0 0.0
2018-Feb-16 19:00N 25°50' W 080°07'0 0.0
2018-Feb-16 18:30N 25°50' W 080°07'0 0.0
2018-Feb-16 18:00N 25°50' W 080°07'0 0.0
2018-Feb-16 17:30N 25°50' W 080°07'0 0.0
2018-Feb-16 17:00N 25°50' W 080°07'0 0.0
2018-Feb-16 16:24N 25°50' W 080°07'0 0.0
2018-Feb-16 16:00N 25°50' W 080°07'0 0.0
2018-Feb-16 15:30N 25°50' W 080°07'0 0.0
2018-Feb-16 15:00N 25°50' W 080°07'0 0.0
2018-Feb-16 14:30N 25°50' W 080°07'0 0.0
2018-Feb-16 14:00N 25°50' W 080°07'0 0.0
2018-Feb-16 13:30N 25°50' W 080°07'0 0.0
2018-Feb-16 13:00N 25°50' W 080°07'0 0.0
2018-Feb-16 12:30N 25°50' W 080°07'0 0.0
2018-Feb-16 11:54N 25°50' W 080°07'0 0.0
2018-Feb-16 11:30N 25°50' W 080°07'0 0.0
2018-Feb-16 10:57N 25°50' W 080°07'0 0.0
2018-Feb-16 10:30N 25°50' W 080°07'0 0.0
2018-Feb-16 10:00N 25°50' W 080°07'0 0.0
2018-Feb-16 09:30N 25°50' W 080°07'0 0.0
2018-Feb-16 08:51N 25°50' W 080°07'0 0.0
2018-Feb-16 08:27N 25°50' W 080°07'0 0.0
2018-Feb-16 08:00N 25°50' W 080°07'0 0.0
2018-Feb-16 07:27N 25°50' W 080°07'0 0.0
2018-Feb-16 06:57N 25°50' W 080°07'0 0.0
2018-Feb-16 06:30N 25°50' W 080°07'0 0.0
2018-Feb-16 06:00N 25°50' W 080°07'0 0.0
2018-Feb-16 05:30N 25°50' W 080°07'0 0.0
2018-Feb-16 05:00N 25°50' W 080°07'0 0.0
2018-Feb-16 04:30N 25°50' W 080°07'0 0.0
2018-Feb-16 04:00N 25°50' W 080°07'0 0.0
2018-Feb-16 03:30N 25°50' W 080°07'0 0.0
2018-Feb-16 03:00N 25°50' W 080°07'0 0.0
2018-Feb-16 02:30N 25°50' W 080°07'0 0.0
2018-Feb-16 02:00N 25°50' W 080°07'0 0.0
2018-Feb-16 01:30N 25°50' W 080°07'0 0.0
2018-Feb-16 01:00N 25°50' W 080°07'0 0.0
2018-Feb-16 00:30N 25°50' W 080°07'0 0.0
2018-Feb-16 00:00N 25°50' W 080°07'0 0.0
2018-Feb-15 23:30N 25°50' W 080°07'0 0.0
2018-Feb-15 22:57N 25°50' W 080°07'0 0.0
2018-Feb-15 22:27N 25°50' W 080°07'0 0.0
2018-Feb-15 22:00N 25°50' W 080°07'0 0.0
2018-Feb-15 21:24N 25°50' W 080°07'0 0.0
2018-Feb-15 20:54N 25°50' W 080°07'0 0.0
2018-Feb-15 20:27N 25°50' W 080°07'0 0.0
2018-Feb-15 20:00N 25°50' W 080°07'0 0.0
2018-Feb-15 19:30N 25°50' W 080°07'0 0.0
2018-Feb-15 19:00N 25°50' W 080°07'0 0.0
2018-Feb-15 18:27N 25°50' W 080°07'0 0.0
2018-Feb-15 17:54N 25°50' W 080°07'0 0.0
2018-Feb-15 17:30N 25°50' W 080°07'0 0.0
2018-Feb-15 16:57N 25°50' W 080°07'0 0.0
2018-Feb-15 16:27N 25°50' W 080°07'0 0.0
2018-Feb-15 16:00N 25°50' W 080°07'0 0.0
2018-Feb-15 15:30N 25°50' W 080°07'0 0.0
2018-Feb-15 14:57N 25°50' W 080°07'0 0.0
2018-Feb-15 14:30N 25°50' W 080°07'0 0.0
2018-Feb-15 14:00N 25°50' W 080°07'0 0.0
2018-Feb-15 13:30N 25°50' W 080°07'0 0.0
2018-Feb-15 13:00N 25°50' W 080°07'0 0.0
2018-Feb-15 12:30N 25°50' W 080°07'0 0.0
2018-Feb-15 12:00N 25°50' W 080°07'0 0.0
2018-Feb-15 11:30N 25°50' W 080°07'0 0.0
2018-Feb-15 11:00N 25°50' W 080°07'0 0.0
2018-Feb-15 10:30N 25°50' W 080°07'0 0.0
2018-Feb-15 10:00N 25°50' W 080°07'0 0.0
2018-Feb-15 09:30N 25°50' W 080°07'0 0.0
2018-Feb-15 08:57N 25°50' W 080°07'0 0.0
2018-Feb-15 08:30N 25°50' W 080°07'0 0.0
2018-Feb-15 08:00N 25°50' W 080°07'0 0.0
2018-Feb-15 07:30N 25°50' W 080°07'0 0.0
2018-Feb-15 06:57N 25°50' W 080°07'0 0.0
2018-Feb-15 06:24N 25°50' W 080°07'0 0.0
2018-Feb-15 05:54N 25°50' W 080°07'0 0.0
2018-Feb-15 05:27N 25°50' W 080°07'0 0.0
2018-Feb-15 05:00N 25°50' W 080°07'0 0.0
2018-Feb-15 04:30N 25°50' W 080°07'0 0.0
2018-Feb-15 04:00N 25°50' W 080°07'0 0.0
2018-Feb-15 03:27N 25°50' W 080°07'0 0.0
2018-Feb-15 03:00N 25°50' W 080°07'0 0.0
2018-Feb-15 02:27N 25°50' W 080°07'0 0.0
2018-Feb-15 02:00N 25°50' W 080°07'0 0.0
2018-Feb-15 01:30N 25°50' W 080°07'0 0.0
2018-Feb-15 00:57N 25°50' W 080°07'0 0.0
2018-Feb-15 00:30N 25°50' W 080°07'0 0.0
2018-Feb-15 00:00N 25°50' W 080°07'0 0.0
2018-Feb-14 23:30N 25°50' W 080°07'0 0.0
2018-Feb-14 23:00N 25°50' W 080°07'0 0.0
2018-Feb-14 22:30N 25°50' W 080°07'0 0.0
2018-Feb-14 22:00N 25°50' W 080°07'0 0.0
2018-Feb-14 21:30N 25°50' W 080°07'0 0.0
2018-Feb-14 21:00N 25°50' W 080°07'0 0.0
2018-Feb-14 20:30N 25°50' W 080°07'0 0.0
2018-Feb-14 20:00N 25°50' W 080°07'0 0.0
2018-Feb-14 19:30N 25°50' W 080°07'0 0.0
2018-Feb-14 19:00N 25°50' W 080°07'0 0.0
2018-Feb-14 18:30N 25°50' W 080°07'0 0.0
2018-Feb-14 18:00N 25°50' W 080°07'0 0.0
2018-Feb-14 17:30N 25°50' W 080°07'0 0.0
2018-Feb-14 17:00N 25°50' W 080°07'0 0.0
2018-Feb-14 16:30N 25°50' W 080°07'0 0.0
2018-Feb-14 15:54N 25°50' W 080°07'0 0.0
2018-Feb-14 15:27N 25°50' W 080°07'0 0.0
2018-Feb-14 15:00N 25°50' W 080°07'0 0.0
2018-Feb-14 14:30N 25°50' W 080°07'0 0.0
2018-Feb-14 14:00N 25°50' W 080°07'0 0.0
2018-Feb-14 13:30N 25°50' W 080°07'0 0.0
2018-Feb-14 13:00N 25°50' W 080°07'0 0.0
2018-Feb-14 12:30N 25°50' W 080°07'0 0.0
2018-Feb-14 11:57N 25°50' W 080°07'0 0.0
2018-Feb-14 11:30N 25°50' W 080°07'0 0.0
2018-Feb-14 11:00N 25°50' W 080°07'0 0.0
2018-Feb-14 10:27N 25°50' W 080°07'0 0.0
2018-Feb-14 10:00N 25°50' W 080°07'0 0.0
2018-Feb-14 09:30N 25°50' W 080°07'0 0.0
2018-Feb-14 08:57N 25°50' W 080°07'0 0.0
2018-Feb-14 08:30N 25°50' W 080°07'0 0.0
2018-Feb-14 08:00N 25°50' W 080°07'0 0.0
2018-Feb-14 07:30N 25°50' W 080°07'0 0.0
2018-Feb-14 07:00N 25°50' W 080°07'0 0.0
2018-Feb-14 06:30N 25°50' W 080°07'0 0.0
2018-Feb-14 06:00N 25°50' W 080°07'0 0.0
2018-Feb-14 05:30N 25°50' W 080°07'0 0.0
2018-Feb-14 05:00N 25°50' W 080°07'0 0.0
2018-Feb-14 04:30N 25°50' W 080°07'0 0.0
2018-Feb-14 03:59N 25°50' W 080°07'0 0.0
2018-Feb-14 03:30N 25°50' W 080°07'0 0.0
2018-Feb-14 03:00N 25°50' W 080°07'0 0.0
2018-Feb-14 02:30N 25°50' W 080°07'0 0.0
2018-Feb-14 02:00N 25°50' W 080°07'0 0.0
2018-Feb-14 01:29N 25°50' W 080°07'0 0.0
2018-Feb-14 01:00N 25°50' W 080°07'0 0.0
2018-Feb-14 00:30N 25°50' W 080°07'0 0.0
2018-Feb-14 00:01N 25°50' W 080°07'0 0.0
2018-Feb-13 23:31N 25°50' W 080°07'0 0.0
2018-Feb-13 23:00N 25°50' W 080°07'0 0.0
2018-Feb-13 22:30N 25°50' W 080°07'0 0.0
2018-Feb-13 22:00N 25°50' W 080°07'0 0.0
2018-Feb-13 21:30N 25°50' W 080°07'0 0.0
2018-Feb-13 21:00N 25°50' W 080°07'0 0.0
2018-Feb-13 20:30N 25°50' W 080°07'0 0.0
2018-Feb-13 20:00N 25°50' W 080°07'0 0.0
2018-Feb-13 19:30N 25°50' W 080°07'0 0.0
2018-Feb-13 19:00N 25°50' W 080°07'0 0.0
2018-Feb-13 18:30N 25°50' W 080°07'0 0.0
2018-Feb-13 18:00N 25°50' W 080°07'0 0.0
2018-Feb-13 17:30N 25°50' W 080°07'0 0.0
2018-Feb-13 17:00N 25°50' W 080°07'0 0.0
2018-Feb-13 16:30N 25°50' W 080°07'0 0.0
2018-Feb-13 16:00N 25°50' W 080°07'0 0.0
2018-Feb-13 15:30N 25°50' W 080°07'0 0.0
2018-Feb-13 15:00N 25°50' W 080°07'0 0.0
2018-Feb-13 14:31N 25°50' W 080°07'0 0.0
2018-Feb-13 14:00N 25°50' W 080°07'0 0.0
2018-Feb-13 13:29N 25°50' W 080°07'0 0.0
2018-Feb-13 12:59N 25°50' W 080°07'0 0.0
2018-Feb-13 12:30N 25°50' W 080°07'0 0.0
2018-Feb-13 12:01N 25°50' W 080°07'0 0.0
2018-Feb-13 11:30N 25°50' W 080°07'0 0.0
2018-Feb-13 11:00N 25°50' W 080°07'0 0.0
2018-Feb-13 10:31N 25°50' W 080°07'0 0.0
2018-Feb-13 10:00N 25°50' W 080°07'0 0.0
2018-Feb-13 09:30N 25°50' W 080°07'0 0.0
2018-Feb-13 09:00N 25°50' W 080°07'0 0.0
2018-Feb-13 08:30N 25°50' W 080°07'0 0.0
2018-Feb-13 08:00N 25°50' W 080°07'0 0.0
2018-Feb-13 07:30N 25°50' W 080°07'0 0.0
2018-Feb-13 07:00N 25°50' W 080°07'0 0.0
2018-Feb-13 06:30N 25°50' W 080°07'0 0.0
2018-Feb-13 05:59N 25°50' W 080°07'0 0.0
2018-Feb-13 05:30N 25°50' W 080°07'0 0.0
2018-Feb-13 05:00N 25°50' W 080°07'0 0.0
2018-Feb-13 04:30N 25°50' W 080°07'0 0.0
2018-Feb-13 04:01N 25°50' W 080°07'0 0.0
2018-Feb-13 03:31N 25°50' W 080°07'0 0.0
2018-Feb-13 02:59N 25°50' W 080°07'0 0.0
2018-Feb-13 02:30N 25°50' W 080°07'0 0.0
2018-Feb-13 02:00N 25°50' W 080°07'0 0.0
2018-Feb-13 01:30N 25°50' W 080°07'0 0.0
2018-Feb-13 01:00N 25°50' W 080°07'0 0.0
2018-Feb-13 00:30N 25°50' W 080°07'0 0.3
2018-Feb-13 00:00N 25°50' W 080°07'2 3.2
2018-Feb-12 23:30N 25°51' W 080°09'2 3.3
2018-Feb-12 23:00N 25°53' W 080°09'3 6.0
2018-Feb-12 22:31N 25°50' W 080°10'3 5.1
2018-Feb-12 22:00N 25°47' W 080°11'0 0.0
2018-Feb-12 21:30N 25°47' W 080°11'0 0.0
2018-Feb-12 21:00N 25°47' W 080°11'0 0.0
2018-Feb-12 20:30N 25°47' W 080°11'0 0.0
2018-Feb-12 20:00N 25°47' W 080°11'0 0.0
2018-Feb-12 19:31N 25°47' W 080°11'0 0.0
2018-Feb-12 19:00N 25°47' W 080°11'0 0.0
2018-Feb-12 18:30N 25°47' W 080°11'0 0.0
2018-Feb-12 18:00N 25°47' W 080°11'0 0.0
2018-Feb-12 17:30N 25°47' W 080°11'0 0.0
2018-Feb-12 17:00N 25°47' W 080°11'0 0.0
2018-Feb-12 16:30N 25°47' W 080°11'2 3.0
2018-Feb-12 16:00N 25°46' W 080°10'3 6.7
2018-Feb-12 15:30N 25°46' W 080°06'510.3
2018-Feb-12 15:00N 25°52' W 080°06'510.8
2018-Feb-12 14:30N 25°57' W 080°05'  
Track history (hours):
 
Tides and Currents Weather Stations Pressure Air Temp Water Temp Dewpoint Dewpoint Depression Visibility Wind Speed Wind Dir Waves Ship Positions

Insignia

Owner: Hamilton, Robin, Fort Lauderdale, FL. More information available from US FCC via Universal Licensing System and Coast Guard Vessel Documentation Center.

Last reported at 2018-Feb-21 19:00 UTC. Time now 2018-Feb-21 19:23 UTC.
Position N 26°05' W 080°11'.

Length 34 m; draft 2.4 m.

Type: Pleasure craft. MMSI: 367753960.

Date/timePositionNaut miles runAvg speedWind from/ knotsBaromVisibWave heightAir tempDewpointWater temp
2018-Feb-21 19:00N 26°05' W 080°11'0 0.0
2018-Feb-21 18:30N 26°05' W 080°11'0 0.0
2018-Feb-21 18:00N 26°05' W 080°11'0 0.0
2018-Feb-21 17:30N 26°05' W 080°11'0 0.0
2018-Feb-21 17:00N 26°05' W 080°11'0 0.0
2018-Feb-21 16:30N 26°05' W 080°11'0 0.0
2018-Feb-21 16:00N 26°05' W 080°11'0 0.0
2018-Feb-21 15:30N 26°05' W 080°11'0 0.0
2018-Feb-21 15:00N 26°05' W 080°11'0 0.0
2018-Feb-21 14:30N 26°05' W 080°11'0 0.0
2018-Feb-21 14:00N 26°05' W 080°11'0 0.0
2018-Feb-21 13:30N 26°05' W 080°11'0 0.0
2018-Feb-21 13:00N 26°05' W 080°11'0 0.0
2018-Feb-21 12:30N 26°05' W 080°11'0 0.0
2018-Feb-21 12:00N 26°05' W 080°11'0 0.0
2018-Feb-21 11:30N 26°05' W 080°11'0 0.0
2018-Feb-21 11:00N 26°05' W 080°11'0 0.0
2018-Feb-21 10:30N 26°05' W 080°11'0 0.0
2018-Feb-21 10:00N 26°05' W 080°11'0 0.0
2018-Feb-21 09:30N 26°05' W 080°11'0 0.0
2018-Feb-21 09:00N 26°05' W 080°11'0 0.0
2018-Feb-21 08:30N 26°05' W 080°11'0 0.0
2018-Feb-21 08:00N 26°05' W 080°11'0 0.0
2018-Feb-21 07:30N 26°05' W 080°11'0 0.0
2018-Feb-21 07:00N 26°05' W 080°11'0 0.0
2018-Feb-21 06:30N 26°05' W 080°11'0 0.0
2018-Feb-21 06:00N 26°05' W 080°11'0 0.0
2018-Feb-21 05:30N 26°05' W 080°11'0 0.0
2018-Feb-21 05:00N 26°05' W 080°11'0 0.0
2018-Feb-21 04:30N 26°05' W 080°11'0 0.0
2018-Feb-21 04:00N 26°05' W 080°11'0 0.0
2018-Feb-21 03:30N 26°05' W 080°11'0 0.0
2018-Feb-21 03:00N 26°05' W 080°11'0 0.0
2018-Feb-21 02:30N 26°05' W 080°11'0 0.0
2018-Feb-21 02:00N 26°05' W 080°11'0 0.0
2018-Feb-21 01:30N 26°05' W 080°11'0 0.0
2018-Feb-21 01:00N 26°05' W 080°11'0 0.0
2018-Feb-21 00:30N 26°05' W 080°11'0 0.0
2018-Feb-21 00:00N 26°05' W 080°11'0 0.0
2018-Feb-20 23:30N 26°05' W 080°11'0 0.0
2018-Feb-20 23:00N 26°05' W 080°11'0 0.0
2018-Feb-20 22:30N 26°05' W 080°11'0 0.0
2018-Feb-20 22:00N 26°05' W 080°11'0 0.0
2018-Feb-20 21:30N 26°05' W 080°11'0 0.0
2018-Feb-20 21:00N 26°05' W 080°11'1 2.1
2018-Feb-20 20:30N 26°06' W 080°10'2 3.1
2018-Feb-20 19:59N 26°07' W 080°09'2 3.2
2018-Feb-20 19:29N 26°07' W 080°07'2 5.2
2018-Feb-20 19:00N 26°04' W 080°07'3 6.0
2018-Feb-20 18:30N 26°01' W 080°07'3 5.3
2018-Feb-20 18:00N 25°58' W 080°07'3 5.5
2018-Feb-20 17:30N 25°56' W 080°08'2 4.4
2018-Feb-20 17:00N 25°54' W 080°08'2 4.8
2018-Feb-20 16:30N 25°51' W 080°09'2 3.0
2018-Feb-20 16:00N 25°50' W 080°07'0 0.3
2018-Feb-20 15:30N 25°50' W 080°07'1 1.1
2018-Feb-20 14:59N 25°50' W 080°07'0 0.0
2018-Feb-20 14:29N 25°50' W 080°07'0 0.0
2018-Feb-20 13:59N 25°50' W 080°07'0 0.0
2018-Feb-20 13:29N 25°50' W 080°07'0 0.0
2018-Feb-20 12:59N 25°50' W 080°07'0 0.0
2018-Feb-20 12:28N 25°50' W 080°07'0 0.0
2018-Feb-20 11:58N 25°50' W 080°07'0 0.0
2018-Feb-20 11:28N 25°50' W 080°07'0 0.0
2018-Feb-20 10:58N 25°50' W 080°07'0 0.0
2018-Feb-20 10:28N 25°50' W 080°07'0 0.0
2018-Feb-20 09:58N 25°50' W 080°07'0 0.0
2018-Feb-20 09:25N 25°50' W 080°07'0 0.0
2018-Feb-20 08:58N 25°50' W 080°07'0 0.0
2018-Feb-20 08:25N 25°50' W 080°07'0 0.0
2018-Feb-20 07:55N 25°50' W 080°07'0 0.0
2018-Feb-20 07:28N 25°50' W 080°07'0 0.0
2018-Feb-20 06:58N 25°50' W 080°07'0 0.0
2018-Feb-20 06:28N 25°50' W 080°07'0 0.0
2018-Feb-20 05:55N 25°50' W 080°07'0 0.0
2018-Feb-20 05:25N 25°50' W 080°07'0 0.0
2018-Feb-20 04:58N 25°50' W 080°07'0 0.0
2018-Feb-20 04:25N 25°50' W 080°07'0 0.0
2018-Feb-20 03:55N 25°50' W 080°07'0 0.0
2018-Feb-20 03:28N 25°50' W 080°07'0 0.0
2018-Feb-20 02:58N 25°50' W 080°07'0 0.0
2018-Feb-20 02:28N 25°50' W 080°07'0 0.0
2018-Feb-20 01:58N 25°50' W 080°07'0 0.0
2018-Feb-20 01:28N 25°50' W 080°07'0 0.0
2018-Feb-20 00:58N 25°50' W 080°07'0 0.0
2018-Feb-20 00:28N 25°50' W 080°07'0 0.0
2018-Feb-19 23:58N 25°50' W 080°07'0 0.0
2018-Feb-19 23:28N 25°50' W 080°07'0 0.0
2018-Feb-19 22:58N 25°50' W 080°07'0 0.0
2018-Feb-19 22:28N 25°50' W 080°07'0 0.0
2018-Feb-19 21:58N 25°50' W 080°07'0 0.0
2018-Feb-19 21:31N 25°50' W 080°07'0 0.0
2018-Feb-19 21:01N 25°50' W 080°07'0 0.0
2018-Feb-19 20:30N 25°50' W 080°07'0 0.0
2018-Feb-19 19:58N 25°50' W 080°07'0 0.0
2018-Feb-19 19:31N 25°50' W 080°07'0 0.0
2018-Feb-19 19:01N 25°50' W 080°07'0 0.0
2018-Feb-19 18:28N 25°50' W 080°07'0 0.0
2018-Feb-19 17:55N 25°50' W 080°07'0 0.0
2018-Feb-19 17:25N 25°50' W 080°07'0 0.0
2018-Feb-19 16:52N 25°50' W 080°07'0 0.0
2018-Feb-19 16:27N 25°50' W 080°07'0 0.0
2018-Feb-19 16:01N 25°50' W 080°07'0 0.0
2018-Feb-19 15:30N 25°50' W 080°07'0 0.0
2018-Feb-19 15:01N 25°50' W 080°07'0 0.0
2018-Feb-19 14:25N 25°50' W 080°07'0 0.0
2018-Feb-19 13:57N 25°50' W 080°07'0 0.0
2018-Feb-19 13:28N 25°50' W 080°07'0 0.0
2018-Feb-19 13:00N 25°50' W 080°07'0 0.0
2018-Feb-19 12:31N 25°50' W 080°07'0 0.0
2018-Feb-19 11:58N 25°50' W 080°07'0 0.0
2018-Feb-19 11:30N 25°50' W 080°07'0 0.0
2018-Feb-19 10:55N 25°50' W 080°07'0 0.0
2018-Feb-19 10:27N 25°50' W 080°07'0 0.0
2018-Feb-19 10:00N 25°50' W 080°07'0 0.0
2018-Feb-19 09:28N 25°50' W 080°07'0 0.0
2018-Feb-19 09:01N 25°50' W 080°07'0 0.0
2018-Feb-19 08:27N 25°50' W 080°07'0 0.0
2018-Feb-19 08:01N 25°50' W 080°07'0 0.0
2018-Feb-19 07:30N 25°50' W 080°07'0 0.0
2018-Feb-19 07:00N 25°50' W 080°07'0 0.0
2018-Feb-19 06:31N 25°50' W 080°07'0 0.0
2018-Feb-19 06:00N 25°50' W 080°07'0 0.0
2018-Feb-19 05:30N 25°50' W 080°07'0 0.0
2018-Feb-19 05:00N 25°50' W 080°07'0 0.0
2018-Feb-19 04:30N 25°50' W 080°07'0 0.0
2018-Feb-19 04:00N 25°50' W 080°07'0 0.0
2018-Feb-19 03:30N 25°50' W 080°07'0 0.0
2018-Feb-19 03:00N 25°50' W 080°07'0 0.0
2018-Feb-19 02:30N 25°50' W 080°07'0 0.0
2018-Feb-19 02:00N 25°50' W 080°07'0 0.0
2018-Feb-19 01:30N 25°50' W 080°07'0 0.0
2018-Feb-19 01:00N 25°50' W 080°07'0 0.0
2018-Feb-19 00:30N 25°50' W 080°07'0 0.0
2018-Feb-19 00:00N 25°50' W 080°07'0 0.0
2018-Feb-18 23:31N 25°50' W 080°07'0 0.0
2018-Feb-18 23:01N 25°50' W 080°07'0 0.0
2018-Feb-18 22:25N 25°50' W 080°07'0 0.0
2018-Feb-18 22:00N 25°50' W 080°07'0 0.0
2018-Feb-18 21:30N 25°50' W 080°07'0 0.0
2018-Feb-18 20:54N 25°50' W 080°07'0 0.0
2018-Feb-18 20:27N 25°50' W 080°07'0 0.0
2018-Feb-18 19:57N 25°50' W 080°07'0 0.0
2018-Feb-18 19:30N 25°50' W 080°07'0 0.0
2018-Feb-18 19:01N 25°50' W 080°07'0 0.0
2018-Feb-18 18:30N 25°50' W 080°07'0 0.0
2018-Feb-18 17:57N 25°50' W 080°07'0 0.0
2018-Feb-18 17:30N 25°50' W 080°07'0 0.0
2018-Feb-18 17:00N 25°50' W 080°07'0 0.0
2018-Feb-18 16:30N 25°50' W 080°07'0 0.0
2018-Feb-18 16:00N 25°50' W 080°07'0 0.0
2018-Feb-18 15:30N 25°50' W 080°07'0 0.0
2018-Feb-18 15:00N 25°50' W 080°07'0 0.0
2018-Feb-18 14:30N 25°50' W 080°07'0 0.0
2018-Feb-18 14:00N 25°50' W 080°07'0 0.0
2018-Feb-18 13:30N 25°50' W 080°07'0 0.0
2018-Feb-18 13:00N 25°50' W 080°07'0 0.0
2018-Feb-18 12:30N 25°50' W 080°07'0 0.0
2018-Feb-18 11:57N 25°50' W 080°07'0 0.0
2018-Feb-18 11:27N 25°50' W 080°07'0 0.0
2018-Feb-18 11:00N 25°50' W 080°07'0 0.0
2018-Feb-18 10:30N 25°50' W 080°07'0 0.0
2018-Feb-18 09:51N 25°50' W 080°07'0 0.0
2018-Feb-18 09:30N 25°50' W 080°07'0 0.0
2018-Feb-18 09:00N 25°50' W 080°07'0 0.0
2018-Feb-18 08:30N 25°50' W 080°07'0 0.0
2018-Feb-18 08:00N 25°50' W 080°07'0 0.0
2018-Feb-18 07:30N 25°50' W 080°07'0 0.0
2018-Feb-18 07:00N 25°50' W 080°07'0 0.0
2018-Feb-18 06:27N 25°50' W 080°07'0 0.0
2018-Feb-18 06:00N 25°50' W 080°07'0 0.0
2018-Feb-18 05:30N 25°50' W 080°07'0 0.0
2018-Feb-18 05:00N 25°50' W 080°07'0 0.0
2018-Feb-18 04:27N 25°50' W 080°07'0 0.0
2018-Feb-18 04:00N 25°50' W 080°07'0 0.0
2018-Feb-18 03:30N 25°50' W 080°07'0 0.0
2018-Feb-18 03:00N 25°50' W 080°07'0 0.0
2018-Feb-18 02:30N 25°50' W 080°07'0 0.0
2018-Feb-18 02:00N 25°50' W 080°07'0 0.0
2018-Feb-18 01:30N 25°50' W 080°07'0 0.0
2018-Feb-18 01:00N 25°50' W 080°07'0 0.0
2018-Feb-18 00:30N 25°50' W 080°07'0 0.0
2018-Feb-18 00:00N 25°50' W 080°07'0 0.0
2018-Feb-17 23:27N 25°50' W 080°07'0 0.0
2018-Feb-17 23:00N 25°50' W 080°07'0 0.0
2018-Feb-17 22:30N 25°50' W 080°07'0 0.0
2018-Feb-17 22:00N 25°50' W 080°07'0 0.0
2018-Feb-17 21:30N 25°50' W 080°07'0 0.0
2018-Feb-17 21:00N 25°50' W 080°07'0 0.0
2018-Feb-17 20:30N 25°50' W 080°07'0 0.0
2018-Feb-17 19:57N 25°50' W 080°07'0 0.0
2018-Feb-17 19:27N 25°50' W 080°07'0 0.0
2018-Feb-17 19:00N 25°50' W 080°07'0 0.0
2018-Feb-17 18:24N 25°50' W 080°07'0 0.0
2018-Feb-17 18:00N 25°50' W 080°07'0 0.0
2018-Feb-17 17:27N 25°50' W 080°07'0 0.0
2018-Feb-17 17:00N 25°50' W 080°07'0 0.0
2018-Feb-17 16:30N 25°50' W 080°07'0 0.0
2018-Feb-17 16:00N 25°50' W 080°07'0 0.0
2018-Feb-17 15:21N 25°50' W 080°07'0 0.0
2018-Feb-17 15:00N 25°50' W 080°07'0 0.0
2018-Feb-17 14:30N 25°50' W 080°07'0 0.0
2018-Feb-17 13:57N 25°50' W 080°07'0 0.0
2018-Feb-17 13:30N 25°50' W 080°07'0 0.0
2018-Feb-17 13:00N 25°50' W 080°07'0 0.0
2018-Feb-17 12:30N 25°50' W 080°07'0 0.0
2018-Feb-17 12:00N 25°50' W 080°07'0 0.0
2018-Feb-17 11:30N 25°50' W 080°07'0 0.0
2018-Feb-17 11:00N 25°50' W 080°07'0 0.0
2018-Feb-17 10:27N 25°50' W 080°07'0 0.0
2018-Feb-17 10:00N 25°50' W 080°07'0 0.0
2018-Feb-17 09:30N 25°50' W 080°07'0 0.0
2018-Feb-17 09:00N 25°50' W 080°07'0 0.0
2018-Feb-17 08:30N 25°50' W 080°07'0 0.0
2018-Feb-17 08:00N 25°50' W 080°07'0 0.0
2018-Feb-17 07:30N 25°50' W 080°07'0 0.0
2018-Feb-17 07:00N 25°50' W 080°07'0 0.0
2018-Feb-17 06:30N 25°50' W 080°07'0 0.0
2018-Feb-17 06:00N 25°50' W 080°07'0 0.0
2018-Feb-17 05:30N 25°50' W 080°07'0 0.0
2018-Feb-17 04:57N 25°50' W 080°07'0 0.0
2018-Feb-17 04:30N 25°50' W 080°07'0 0.0
2018-Feb-17 04:00N 25°50' W 080°07'0 0.0
2018-Feb-17 03:30N 25°50' W 080°07'0 0.0
2018-Feb-17 03:00N 25°50' W 080°07'0 0.0
2018-Feb-17 02:30N 25°50' W 080°07'0 0.0
2018-Feb-17 02:00N 25°50' W 080°07'0 0.0
2018-Feb-17 01:30N 25°50' W 080°07'0 0.0
2018-Feb-17 01:00N 25°50' W 080°07'0 0.0
2018-Feb-17 00:27N 25°50' W 080°07'0 0.0
2018-Feb-17 00:00N 25°50' W 080°07'0 0.0
2018-Feb-16 23:30N 25°50' W 080°07'0 0.0
2018-Feb-16 23:00N 25°50' W 080°07'0 0.0
2018-Feb-16 22:27N 25°50' W 080°07'0 0.0
2018-Feb-16 22:00N 25°50' W 080°07'0 0.0
2018-Feb-16 21:30N 25°50' W 080°07'0 0.0
2018-Feb-16 21:00N 25°50' W 080°07'0 0.0
2018-Feb-16 20:30N 25°50' W 080°07'0 0.0
2018-Feb-16 20:00N 25°50' W 080°07'0 0.0
2018-Feb-16 19:30N 25°50' W 080°07'0 0.0
2018-Feb-16 19:00N 25°50' W 080°07'0 0.0
2018-Feb-16 18:30N 25°50' W 080°07'0 0.0
2018-Feb-16 18:00N 25°50' W 080°07'0 0.0
2018-Feb-16 17:30N 25°50' W 080°07'0 0.0
2018-Feb-16 17:00N 25°50' W 080°07'0 0.0
2018-Feb-16 16:24N 25°50' W 080°07'0 0.0
2018-Feb-16 16:00N 25°50' W 080°07'0 0.0
2018-Feb-16 15:30N 25°50' W 080°07'0 0.0
2018-Feb-16 15:00N 25°50' W 080°07'0 0.0
2018-Feb-16 14:30N 25°50' W 080°07'0 0.0
2018-Feb-16 14:00N 25°50' W 080°07'0 0.0
2018-Feb-16 13:30N 25°50' W 080°07'0 0.0
2018-Feb-16 13:00N 25°50' W 080°07'0 0.0
2018-Feb-16 12:30N 25°50' W 080°07'0 0.0
2018-Feb-16 11:54N 25°50' W 080°07'0 0.0
2018-Feb-16 11:30N 25°50' W 080°07'0 0.0
2018-Feb-16 10:57N 25°50' W 080°07'0 0.0
2018-Feb-16 10:30N 25°50' W 080°07'0 0.0
2018-Feb-16 10:00N 25°50' W 080°07'0 0.0
2018-Feb-16 09:30N 25°50' W 080°07'0 0.0
2018-Feb-16 08:51N 25°50' W 080°07'0 0.0
2018-Feb-16 08:27N 25°50' W 080°07'0 0.0
2018-Feb-16 08:00N 25°50' W 080°07'0 0.0
2018-Feb-16 07:27N 25°50' W 080°07'0 0.0
2018-Feb-16 06:57N 25°50' W 080°07'0 0.0
2018-Feb-16 06:30N 25°50' W 080°07'0 0.0
2018-Feb-16 06:00N 25°50' W 080°07'0 0.0
2018-Feb-16 05:30N 25°50' W 080°07'0 0.0
2018-Feb-16 05:00N 25°50' W 080°07'0 0.0
2018-Feb-16 04:30N 25°50' W 080°07'0 0.0
2018-Feb-16 04:00N 25°50' W 080°07'0 0.0
2018-Feb-16 03:30N 25°50' W 080°07'0 0.0
2018-Feb-16 03:00N 25°50' W 080°07'0 0.0
2018-Feb-16 02:30N 25°50' W 080°07'0 0.0
2018-Feb-16 02:00N 25°50' W 080°07'0 0.0
2018-Feb-16 01:30N 25°50' W 080°07'0 0.0
2018-Feb-16 01:00N 25°50' W 080°07'0 0.0
2018-Feb-16 00:30N 25°50' W 080°07'0 0.0
2018-Feb-16 00:00N 25°50' W 080°07'0 0.0
2018-Feb-15 23:30N 25°50' W 080°07'0 0.0
2018-Feb-15 22:57N 25°50' W 080°07'0 0.0
2018-Feb-15 22:27N 25°50' W 080°07'0 0.0
2018-Feb-15 22:00N 25°50' W 080°07'0 0.0
2018-Feb-15 21:24N 25°50' W 080°07'0 0.0
2018-Feb-15 20:54N 25°50' W 080°07'0 0.0
2018-Feb-15 20:27N 25°50' W 080°07'0 0.0
2018-Feb-15 20:00N 25°50' W 080°07'0 0.0
2018-Feb-15 19:30N 25°50' W 080°07'0 0.0
2018-Feb-15 19:00N 25°50' W 080°07'0 0.0
2018-Feb-15 18:27N 25°50' W 080°07'0 0.0
2018-Feb-15 17:54N 25°50' W 080°07'0 0.0
2018-Feb-15 17:30N 25°50' W 080°07'0 0.0
2018-Feb-15 16:57N 25°50' W 080°07'0 0.0
2018-Feb-15 16:27N 25°50' W 080°07'0 0.0
2018-Feb-15 16:00N 25°50' W 080°07'0 0.0
2018-Feb-15 15:30N 25°50' W 080°07'0 0.0
2018-Feb-15 14:57N 25°50' W 080°07'0 0.0
2018-Feb-15 14:30N 25°50' W 080°07'0 0.0
2018-Feb-15 14:00N 25°50' W 080°07'0 0.0
2018-Feb-15 13:30N 25°50' W 080°07'0 0.0
2018-Feb-15 13:00N 25°50' W 080°07'0 0.0
2018-Feb-15 12:30N 25°50' W 080°07'0 0.0
2018-Feb-15 12:00N 25°50' W 080°07'0 0.0
2018-Feb-15 11:30N 25°50' W 080°07'0 0.0
2018-Feb-15 11:00N 25°50' W 080°07'0 0.0
2018-Feb-15 10:30N 25°50' W 080°07'0 0.0
2018-Feb-15 10:00N 25°50' W 080°07'0 0.0
2018-Feb-15 09:30N 25°50' W 080°07'0 0.0
2018-Feb-15 08:57N 25°50' W 080°07'0 0.0
2018-Feb-15 08:30N 25°50' W 080°07'0 0.0
2018-Feb-15 08:00N 25°50' W 080°07'0 0.0
2018-Feb-15 07:30N 25°50' W 080°07'0 0.0
2018-Feb-15 06:57N 25°50' W 080°07'0 0.0
2018-Feb-15 06:24N 25°50' W 080°07'0 0.0
2018-Feb-15 05:54N 25°50' W 080°07'0 0.0
2018-Feb-15 05:27N 25°50' W 080°07'0 0.0
2018-Feb-15 05:00N 25°50' W 080°07'0 0.0
2018-Feb-15 04:30N 25°50' W 080°07'0 0.0
2018-Feb-15 04:00N 25°50' W 080°07'0 0.0
2018-Feb-15 03:27N 25°50' W 080°07'0 0.0
2018-Feb-15 03:00N 25°50' W 080°07'0 0.0
2018-Feb-15 02:27N 25°50' W 080°07'0 0.0
2018-Feb-15 02:00N 25°50' W 080°07'0 0.0
2018-Feb-15 01:30N 25°50' W 080°07'0 0.0
2018-Feb-15 00:57N 25°50' W 080°07'0 0.0
2018-Feb-15 00:30N 25°50' W 080°07'0 0.0
2018-Feb-15 00:00N 25°50' W 080°07'0 0.0
2018-Feb-14 23:30N 25°50' W 080°07'0 0.0
2018-Feb-14 23:00N 25°50' W 080°07'0 0.0
2018-Feb-14 22:30N 25°50' W 080°07'0 0.0
2018-Feb-14 22:00N 25°50' W 080°07'0 0.0
2018-Feb-14 21:30N 25°50' W 080°07'0 0.0
2018-Feb-14 21:00N 25°50' W 080°07'0 0.0
2018-Feb-14 20:30N 25°50' W 080°07'0 0.0
2018-Feb-14 20:00N 25°50' W 080°07'0 0.0
2018-Feb-14 19:30N 25°50' W 080°07'0 0.0
2018-Feb-14 19:00N 25°50' W 080°07'0 0.0
2018-Feb-14 18:30N 25°50' W 080°07'0 0.0
2018-Feb-14 18:00N 25°50' W 080°07'0 0.0
2018-Feb-14 17:30N 25°50' W 080°07'0 0.0
2018-Feb-14 17:00N 25°50' W 080°07'0 0.0
2018-Feb-14 16:30N 25°50' W 080°07'0 0.0
2018-Feb-14 15:54N 25°50' W 080°07'0 0.0
2018-Feb-14 15:27N 25°50' W 080°07'0 0.0
2018-Feb-14 15:00N 25°50' W 080°07'0 0.0
2018-Feb-14 14:30N 25°50' W 080°07'0 0.0
2018-Feb-14 14:00N 25°50' W 080°07'0 0.0
2018-Feb-14 13:30N 25°50' W 080°07'0 0.0
2018-Feb-14 13:00N 25°50' W 080°07'0 0.0
2018-Feb-14 12:30N 25°50' W 080°07'0 0.0
2018-Feb-14 11:57N 25°50' W 080°07'0 0.0
2018-Feb-14 11:30N 25°50' W 080°07'0 0.0
2018-Feb-14 11:00N 25°50' W 080°07'0 0.0
2018-Feb-14 10:27N 25°50' W 080°07'0 0.0
2018-Feb-14 10:00N 25°50' W 080°07'0 0.0
2018-Feb-14 09:30N 25°50' W 080°07'0 0.0
2018-Feb-14 08:57N 25°50' W 080°07'0 0.0
2018-Feb-14 08:30N 25°50' W 080°07'0 0.0
2018-Feb-14 08:00N 25°50' W 080°07'0 0.0
2018-Feb-14 07:30N 25°50' W 080°07'0 0.0
2018-Feb-14 07:00N 25°50' W 080°07'0 0.0
2018-Feb-14 06:30N 25°50' W 080°07'0 0.0
2018-Feb-14 06:00N 25°50' W 080°07'0 0.0
2018-Feb-14 05:30N 25°50' W 080°07'0 0.0
2018-Feb-14 05:00N 25°50' W 080°07'0 0.0
2018-Feb-14 04:30N 25°50' W 080°07'0 0.0
2018-Feb-14 03:59N 25°50' W 080°07'0 0.0
2018-Feb-14 03:30N 25°50' W 080°07'0 0.0
2018-Feb-14 03:00N 25°50' W 080°07'0 0.0
2018-Feb-14 02:30N 25°50' W 080°07'0 0.0
2018-Feb-14 02:00N 25°50' W 080°07'0 0.0
2018-Feb-14 01:29N 25°50' W 080°07'0 0.0
2018-Feb-14 01:00N 25°50' W 080°07'0 0.0
2018-Feb-14 00:30N 25°50' W 080°07'0 0.0
2018-Feb-14 00:01N 25°50' W 080°07'0 0.0
2018-Feb-13 23:31N 25°50' W 080°07'0 0.0
2018-Feb-13 23:00N 25°50' W 080°07'0 0.0
2018-Feb-13 22:30N 25°50' W 080°07'0 0.0
2018-Feb-13 22:00N 25°50' W 080°07'0 0.0
2018-Feb-13 21:30N 25°50' W 080°07'0 0.0
2018-Feb-13 21:00N 25°50' W 080°07'0 0.0
2018-Feb-13 20:30N 25°50' W 080°07'0 0.0
2018-Feb-13 20:00N 25°50' W 080°07'0 0.0
2018-Feb-13 19:30N 25°50' W 080°07'0 0.0
2018-Feb-13 19:00N 25°50' W 080°07'0 0.0
2018-Feb-13 18:30N 25°50' W 080°07'0 0.0
2018-Feb-13 18:00N 25°50' W 080°07'0 0.0
2018-Feb-13 17:30N 25°50' W 080°07'0 0.0
2018-Feb-13 17:00N 25°50' W 080°07'0 0.0
2018-Feb-13 16:30N 25°50' W 080°07'0 0.0
2018-Feb-13 16:00N 25°50' W 080°07'0 0.0
2018-Feb-13 15:30N 25°50' W 080°07'0 0.0
2018-Feb-13 15:00N 25°50' W 080°07'0 0.0
2018-Feb-13 14:31N 25°50' W 080°07'0 0.0
2018-Feb-13 14:00N 25°50' W 080°07'0 0.0
2018-Feb-13 13:29N 25°50' W 080°07'0 0.0
2018-Feb-13 12:59N 25°50' W 080°07'0 0.0
2018-Feb-13 12:30N 25°50' W 080°07'0 0.0
2018-Feb-13 12:01N 25°50' W 080°07'0 0.0
2018-Feb-13 11:30N 25°50' W 080°07'0 0.0
2018-Feb-13 11:00N 25°50' W 080°07'0 0.0
2018-Feb-13 10:31N 25°50' W 080°07'0 0.0
2018-Feb-13 10:00N 25°50' W 080°07'0 0.0
2018-Feb-13 09:30N 25°50' W 080°07'0 0.0
2018-Feb-13 09:00N 25°50' W 080°07'0 0.0
2018-Feb-13 08:30N 25°50' W 080°07'0 0.0
2018-Feb-13 08:00N 25°50' W 080°07'0 0.0
2018-Feb-13 07:30N 25°50' W 080°07'0 0.0
2018-Feb-13 07:00N 25°50' W 080°07'0 0.0
2018-Feb-13 06:30N 25°50' W 080°07'0 0.0
2018-Feb-13 05:59N 25°50' W 080°07'0 0.0
2018-Feb-13 05:30N 25°50' W 080°07'0 0.0
2018-Feb-13 05:00N 25°50' W 080°07'0 0.0
2018-Feb-13 04:30N 25°50' W 080°07'0 0.0
2018-Feb-13 04:01N 25°50' W 080°07'0 0.0
2018-Feb-13 03:31N 25°50' W 080°07'0 0.0
2018-Feb-13 02:59N 25°50' W 080°07'0 0.0
2018-Feb-13 02:30N 25°50' W 080°07'0 0.0
2018-Feb-13 02:00N 25°50' W 080°07'0 0.0
2018-Feb-13 01:30N 25°50' W 080°07'0 0.0
2018-Feb-13 01:00N 25°50' W 080°07'0 0.0
2018-Feb-13 00:30N 25°50' W 080°07'0 0.3
2018-Feb-13 00:00N 25°50' W 080°07'2 3.2
2018-Feb-12 23:30N 25°51' W 080°09'2 3.3
2018-Feb-12 23:00N 25°53' W 080°09'3 6.0
2018-Feb-12 22:31N 25°50' W 080°10'3 5.1
2018-Feb-12 22:00N 25°47' W 080°11'0 0.0
2018-Feb-12 21:30N 25°47' W 080°11'0 0.0
2018-Feb-12 21:00N 25°47' W 080°11'0 0.0
2018-Feb-12 20:30N 25°47' W 080°11'0 0.0
2018-Feb-12 20:00N 25°47' W 080°11'0 0.0
2018-Feb-12 19:31N 25°47' W 080°11'0 0.0
2018-Feb-12 19:00N 25°47' W 080°11'0 0.0
2018-Feb-12 18:30N 25°47' W 080°11'0 0.0
2018-Feb-12 18:00N 25°47' W 080°11'0 0.0
2018-Feb-12 17:30N 25°47' W 080°11'0 0.0
2018-Feb-12 17:00N 25°47' W 080°11'0 0.0
2018-Feb-12 16:30N 25°47' W 080°11'2 3.0
2018-Feb-12 16:00N 25°46' W 080°10'3 6.7
2018-Feb-12 15:30N 25°46' W 080°06'510.3
2018-Feb-12 15:00N 25°52' W 080°06'510.8
2018-Feb-12 14:30N 25°57' W 080°05'  

Dump ship's entire track history